createdAt,value
2018-01-11T00:01:10.386Z,7.03
2018-01-11T00:03:38.855Z,3.97
2018-01-11T00:06:06.391Z,5.13
2018-01-11T00:08:33.974Z,6.47
2018-01-11T00:11:01.490Z,3.57
2018-01-11T00:13:29.066Z,11.47
2018-01-11T00:15:56.592Z,5.60
2018-01-11T00:18:24.146Z,9.33
2018-01-11T00:20:51.705Z,6.27
2018-01-11T00:23:19.993Z,4.47
2018-01-11T00:25:47.552Z,5.47
2018-01-11T00:28:15.089Z,4.97
2018-01-11T00:30:43.398Z,6.50
2018-01-11T00:33:10.936Z,5.43
2018-01-11T00:35:39.240Z,4.03
2018-01-11T00:38:06.765Z,6.10
2018-01-11T00:40:35.132Z,5.87
2018-01-11T00:43:03.468Z,4.10
2018-01-11T00:45:31.016Z,5.47
2018-01-11T00:47:58.575Z,6.53
2018-01-11T00:50:26.116Z,5.80
2018-01-11T00:52:53.661Z,6.37
2018-01-11T00:55:21.957Z,6.07
2018-01-11T00:57:49.473Z,3.60
2018-01-11T01:00:17.806Z,4.00
2018-01-11T01:02:45.340Z,4.33
2018-01-11T01:05:12.898Z,5.43
2018-01-11T01:07:40.432Z,8.50
2018-01-11T01:10:07.977Z,5.50
2018-01-11T01:12:35.538Z,4.57
2018-01-11T01:15:03.081Z,5.70
2018-01-11T01:17:30.611Z,6.07
2018-01-11T01:19:58.130Z,6.57
2018-01-11T01:22:25.691Z,8.60
2018-01-11T01:24:53.263Z,8.77
2018-01-11T01:27:21.579Z,8.17
2018-01-11T01:29:49.137Z,6.87
2018-01-11T01:32:16.673Z,7.93
2018-01-11T01:34:44.223Z,7.33
2018-01-11T01:37:12.492Z,7.67
2018-01-11T01:39:40.825Z,6.40
2018-01-11T01:42:08.358Z,7.40
2018-01-11T01:44:35.922Z,9.00
2018-01-11T01:47:03.461Z,6.40
2018-01-11T01:49:31.781Z,10.00
2018-01-11T01:54:33.155Z,4.63
2018-01-11T01:57:00.690Z,8.30
2018-01-11T01:59:28.252Z,6.67
2018-01-11T02:01:55.816Z,6.00
2018-01-11T02:04:23.381Z,11.73
2018-01-11T02:06:50.952Z,8.40
2018-01-11T02:09:18.631Z,10.43
2018-01-11T02:11:46.199Z,9.40
2018-01-11T02:14:14.497Z,9.43
2018-01-11T02:16:42.786Z,7.40
2018-01-11T02:19:10.310Z,8.70
2018-01-11T02:21:37.853Z,10.20
2018-01-11T02:24:05.381Z,12.10
2018-01-11T02:26:32.929Z,9.83
2018-01-11T02:29:03.523Z,9.23
2018-01-11T02:31:31.076Z,9.37
2018-01-11T02:33:59.387Z,8.27
2018-01-11T02:36:26.930Z,10.37
2018-01-11T02:38:54.477Z,10.07
2018-01-11T02:41:22.006Z,9.57
2018-01-11T02:43:49.529Z,9.67
2018-01-11T02:46:17.094Z,12.17
2018-01-11T02:48:44.641Z,9.20
2018-01-11T02:51:12.198Z,10.03
2018-01-11T02:56:15.313Z,10.97
2018-01-11T02:58:42.863Z,11.53
2018-01-11T03:01:10.416Z,10.90
2018-01-11T03:03:38.743Z,14.83
2018-01-11T03:06:06.279Z,10.07
2018-01-11T03:08:33.827Z,9.33
2018-01-11T03:11:01.380Z,9.80
2018-01-11T03:13:28.914Z,8.10
2018-01-11T03:15:56.468Z,9.70
2018-01-11T03:18:24.060Z,8.80
2018-01-11T03:20:51.597Z,5.87
2018-01-11T03:23:19.148Z,10.50
2018-01-11T03:25:46.710Z,10.00
2018-01-11T03:28:14.254Z,8.40
2018-01-11T03:30:41.781Z,8.30
2018-01-11T03:33:09.368Z,10.10
2018-01-11T03:35:36.886Z,11.43
2018-01-11T03:38:04.443Z,9.00
2018-01-11T03:40:31.970Z,8.80
2018-01-11T03:42:59.540Z,10.57
2018-01-11T03:45:27.851Z,8.30
2018-01-11T03:47:55.428Z,4.43
2018-01-11T03:50:22.984Z,5.30
2018-01-11T03:52:50.525Z,5.80
2018-01-11T03:55:18.055Z,7.03
2018-01-11T03:57:45.623Z,4.20
2018-01-11T04:00:13.152Z,5.40
2018-01-11T04:02:40.746Z,4.80
2018-01-11T04:05:09.092Z,6.13
2018-01-11T04:07:36.634Z,5.37
2018-01-11T04:10:04.185Z,6.53
2018-01-11T04:12:31.710Z,6.77
2018-01-11T04:14:59.306Z,14.70
2018-01-11T04:17:26.848Z,7.60
2018-01-11T04:19:54.370Z,8.53
2018-01-11T04:22:22.809Z,7.57
2018-01-11T04:24:50.362Z,11.50
2018-01-11T04:27:17.927Z,10.37
2018-01-11T04:29:45.540Z,12.03
2018-01-11T04:32:13.137Z,11.53
2018-01-11T04:34:40.657Z,8.77
2018-01-11T04:37:08.213Z,6.80
2018-01-11T04:39:36.540Z,12.03
2018-01-11T04:42:04.077Z,8.50
2018-01-11T04:44:31.687Z,10.27
2018-01-11T04:46:59.266Z,7.77
2018-01-11T04:49:26.862Z,12.33
2018-01-11T04:51:54.404Z,9.07
2018-01-11T04:54:21.915Z,6.87
2018-01-11T04:56:49.461Z,6.53
2018-01-11T04:59:17.012Z,7.40
2018-01-11T05:01:44.551Z,7.13
2018-01-11T05:04:12.085Z,4.97
2018-01-11T05:09:13.458Z,7.57
2018-01-11T05:11:41.034Z,5.57
2018-01-11T05:14:08.567Z,4.97
2018-01-11T05:16:36.869Z,5.37
2018-01-11T05:19:04.453Z,9.10
2018-01-11T05:21:32.750Z,5.20
2018-01-11T05:24:00.334Z,5.83
2018-01-11T05:26:28.641Z,8.90
2018-01-11T05:28:56.190Z,3.70
2018-01-11T05:31:23.793Z,7.07
2018-01-11T05:33:51.397Z,5.93
2018-01-11T05:36:19.747Z,6.40
2018-01-11T05:38:47.295Z,6.77
2018-01-11T05:41:14.870Z,4.17
2018-01-11T05:43:42.390Z,4.70
2018-01-11T05:46:09.940Z,4.63
2018-01-11T05:48:37.491Z,5.37
2018-01-11T05:51:05.009Z,4.47
2018-01-11T05:53:34.028Z,5.63
2018-01-11T05:56:02.314Z,4.33
2018-01-11T05:58:29.888Z,7.60
2018-01-11T06:00:57.430Z,4.80
2018-01-11T06:03:25.681Z,7.37
2018-01-11T06:05:53.148Z,4.60
2018-01-11T06:10:54.869Z,8.17
2018-01-11T06:13:22.430Z,3.53
2018-01-11T06:15:49.959Z,8.03
2018-01-11T06:18:17.430Z,5.40
2018-01-11T06:20:44.899Z,10.13
2018-01-11T06:23:12.357Z,6.80
2018-01-11T06:25:39.919Z,4.10
2018-01-11T06:28:07.498Z,3.97
2018-01-11T06:30:35.130Z,6.30
2018-01-11T06:33:02.684Z,8.47
2018-01-11T06:35:30.208Z,6.47
2018-01-11T06:37:57.754Z,6.60
2018-01-11T06:40:26.786Z,9.50
2018-01-11T06:42:54.325Z,7.97
2018-01-11T06:45:22.617Z,6.07
2018-01-11T06:47:50.157Z,6.57
2018-01-11T06:50:18.455Z,8.77
2018-01-11T06:52:46.744Z,8.80
2018-01-11T06:55:14.293Z,6.93
2018-01-11T06:57:41.832Z,14.40
2018-01-11T07:00:10.174Z,10.37
2018-01-11T07:02:37.663Z,6.80
2018-01-11T07:05:05.168Z,7.73
2018-01-11T07:07:32.710Z,7.43
2018-01-11T07:10:00.331Z,8.50
2018-01-11T07:12:27.848Z,8.93
2018-01-11T07:14:55.406Z,8.37
2018-01-11T07:17:22.978Z,12.17
2018-01-11T07:19:50.794Z,11.30
2018-01-11T07:22:19.134Z,7.80
2018-01-11T07:24:46.769Z,9.23
2018-01-11T07:27:14.309Z,10.90
2018-01-11T07:29:41.857Z,12.90
2018-01-11T07:32:09.427Z,13.47
2018-01-11T07:34:36.986Z,12.13
2018-01-11T07:37:05.295Z,9.60
2018-01-11T07:39:32.881Z,10.07
2018-01-11T07:42:00.424Z,10.50
2018-01-11T07:44:27.974Z,11.30
2018-01-11T07:46:55.550Z,11.60
2018-01-11T07:49:23.074Z,12.70
2018-01-11T07:51:50.653Z,10.80
2018-01-11T07:54:18.199Z,11.87
2018-01-11T07:56:45.776Z,9.37
2018-01-11T07:59:13.327Z,13.00
2018-01-11T08:01:40.865Z,12.53
2018-01-11T08:04:08.422Z,9.17
2018-01-11T08:06:35.992Z,10.67
2018-01-11T08:09:03.528Z,10.90
2018-01-11T08:11:31.812Z,8.47
2018-01-11T08:14:00.140Z,15.27
2018-01-11T08:16:27.684Z,14.33
2018-01-11T08:18:55.215Z,12.67
2018-01-11T08:21:22.750Z,14.03
2018-01-11T08:23:50.247Z,16.23
2018-01-11T08:26:17.780Z,13.17
2018-01-11T08:28:45.309Z,13.53
2018-01-11T08:31:12.870Z,11.03
2018-01-11T08:33:40.409Z,18.30
2018-01-11T08:36:07.948Z,12.43
2018-01-11T08:38:35.480Z,12.03
2018-01-11T08:41:03.792Z,15.50
2018-01-11T08:43:31.376Z,15.63
2018-01-11T08:45:58.906Z,12.90
2018-01-11T08:48:26.467Z,18.17
2018-01-11T08:50:54.024Z,17.53
2018-01-11T08:53:21.722Z,16.00
2018-01-11T08:55:49.278Z,19.27
2018-01-11T08:58:16.828Z,40.17
2018-01-11T09:00:44.377Z,16.70
2018-01-11T09:03:12.676Z,17.30
2018-01-11T09:05:40.251Z,19.50
2018-01-11T09:08:07.805Z,19.90
2018-01-11T09:10:35.340Z,17.83
2018-01-11T09:13:02.914Z,16.37
2018-01-11T09:15:30.474Z,13.43
2018-01-11T09:17:58.028Z,17.77
2018-01-11T09:20:25.586Z,19.90
2018-01-11T09:22:53.150Z,18.43
2018-01-11T09:25:20.678Z,20.30
2018-01-11T09:27:48.240Z,19.77
2018-01-11T09:30:15.776Z,20.10
2018-01-11T09:32:43.316Z,20.33
2018-01-11T09:35:11.667Z,23.67
2018-01-11T09:37:39.222Z,64.17
2018-01-11T09:40:06.766Z,39.03
2018-01-11T09:42:34.301Z,26.63
2018-01-11T09:45:01.819Z,16.23
2018-01-11T09:47:29.363Z,27.13
2018-01-11T09:49:56.891Z,25.33
2018-01-11T09:52:24.445Z,16.83
2018-01-11T09:54:51.976Z,20.67
2018-01-11T09:57:19.523Z,17.27
2018-01-11T09:59:47.102Z,17.43
2018-01-11T10:02:15.422Z,19.33
2018-01-11T10:04:43.038Z,17.30
2018-01-11T10:07:10.560Z,18.53
2018-01-11T10:09:38.126Z,24.43
2018-01-11T10:12:05.701Z,18.33
2018-01-11T10:14:34.018Z,16.93
2018-01-11T10:17:02.469Z,16.13
2018-01-11T10:19:30.026Z,13.23
2018-01-11T10:21:58.310Z,14.10
2018-01-11T10:24:26.615Z,12.50
2018-01-11T10:26:54.124Z,11.30
2018-01-11T10:29:21.685Z,10.70
2018-01-11T10:31:49.216Z,13.10
2018-01-11T10:34:16.752Z,12.03
2018-01-11T10:36:44.271Z,11.47
2018-01-11T10:39:12.679Z,13.63
2018-01-11T10:44:14.918Z,12.00
2018-01-11T10:46:42.445Z,11.77
2018-01-11T10:49:10.052Z,12.87
2018-01-11T10:51:37.542Z,11.13
2018-01-11T10:54:05.070Z,12.30
2018-01-11T10:56:33.366Z,11.30
2018-01-11T10:59:01.678Z,9.97
2018-01-11T11:01:35.026Z,11.23
2018-01-11T11:04:03.353Z,10.60
2018-01-11T11:06:30.893Z,11.20
2018-01-11T11:08:58.462Z,9.33
2018-01-11T11:11:26.031Z,8.40
2018-01-11T11:13:53.557Z,8.90
2018-01-11T11:16:21.102Z,8.60
2018-01-11T11:18:49.433Z,6.50
2018-01-11T11:21:16.985Z,5.23
2018-01-11T11:23:44.520Z,6.30
2018-01-11T11:26:12.097Z,3.93
2018-01-11T11:28:39.657Z,5.47
2018-01-11T11:31:07.606Z,5.83
2018-01-11T11:33:35.153Z,4.90
2018-01-11T11:36:03.488Z,5.87
2018-01-11T11:38:31.039Z,5.97
2018-01-11T11:40:58.640Z,7.23
2018-01-11T11:43:26.936Z,6.57
2018-01-11T11:45:54.642Z,8.10
2018-01-11T11:48:22.207Z,8.83
2018-01-11T11:50:49.742Z,9.90
2018-01-11T11:53:17.247Z,8.40
2018-01-11T11:55:44.790Z,10.07
2018-01-11T11:58:13.090Z,9.07
2018-01-11T12:00:42.189Z,6.97
2018-01-11T12:03:10.697Z,7.20
2018-01-11T12:05:38.401Z,8.00
2018-01-11T12:08:07.272Z,11.60
2018-01-11T12:10:34.820Z,9.60
2018-01-11T12:13:02.361Z,10.10
2018-01-11T12:15:35.539Z,5.93
2018-01-11T12:18:03.827Z,7.33
2018-01-11T12:20:32.165Z,8.73
2018-01-11T12:22:59.702Z,8.40
2018-01-11T12:25:27.252Z,12.70
2018-01-11T12:27:54.842Z,14.47
2018-01-11T12:30:22.399Z,12.97
2018-01-11T12:32:52.922Z,11.60
2018-01-11T12:35:26.275Z,13.80
2018-01-11T12:37:53.834Z,11.27
2018-01-11T12:40:21.337Z,14.43
2018-01-11T12:42:48.919Z,10.00
2018-01-11T12:45:16.421Z,12.30
2018-01-11T12:47:44.061Z,14.30
2018-01-11T12:50:11.667Z,9.23
2018-01-11T12:52:39.404Z,15.63
2018-01-11T12:55:08.024Z,8.50
2018-01-11T12:57:35.582Z,9.40
2018-01-11T13:00:03.092Z,12.40
2018-01-11T13:02:30.656Z,10.83
2018-01-11T13:04:58.162Z,11.33
2018-01-11T13:07:25.697Z,9.83
2018-01-11T13:09:53.285Z,9.83
2018-01-11T13:12:20.883Z,10.47
2018-01-11T13:14:48.457Z,16.20
2018-01-11T13:17:16.071Z,12.90
2018-01-11T13:19:43.652Z,15.40
2018-01-11T13:22:11.261Z,17.90
2018-01-11T13:24:38.846Z,12.03
2018-01-11T13:27:06.406Z,14.50
2018-01-11T13:29:34.024Z,17.10
2018-01-11T13:32:01.636Z,14.73
2018-01-11T13:34:29.538Z,15.90
2018-01-11T13:36:57.191Z,13.10
2018-01-11T13:39:25.080Z,14.77
2018-01-11T13:41:52.785Z,13.13
2018-01-11T13:44:22.877Z,13.53
2018-01-11T13:46:57.184Z,11.47
2018-01-11T14:31:46.127Z,11.90
2018-01-11T14:34:23.876Z,12.30
2018-01-11T14:36:51.572Z,11.03
2018-01-11T14:39:19.183Z,15.30
2018-01-11T14:41:53.230Z,15.90
2018-01-11T14:44:21.628Z,14.53
2018-01-11T14:46:49.296Z,14.30
2018-01-11T14:49:16.950Z,13.77
2018-01-11T14:51:44.633Z,12.83
2018-01-11T14:54:12.245Z,15.40
2018-01-11T14:56:39.864Z,15.83
2018-01-11T14:59:07.467Z,14.87
2018-01-11T15:01:35.169Z,12.97
2018-01-11T15:04:02.830Z,15.70
2018-01-11T15:06:53.128Z,15.70
2018-01-11T15:09:20.829Z,14.90
2018-01-11T15:11:48.405Z,15.60
2018-01-11T15:14:15.981Z,19.07
2018-01-11T15:16:44.390Z,18.20
2018-01-11T15:19:11.989Z,16.83
2018-01-11T15:21:39.541Z,16.60
2018-01-11T15:24:07.217Z,17.40
2018-01-11T15:26:34.765Z,16.67
2018-01-11T15:29:02.428Z,18.93
2018-01-11T15:31:30.014Z,18.07
2018-01-11T15:33:57.589Z,15.57
2018-01-11T15:36:25.133Z,18.40
2018-01-11T15:38:52.664Z,19.53
2018-01-11T15:41:20.377Z,18.73
2018-01-11T15:43:47.909Z,16.23
2018-01-11T15:46:15.509Z,20.20
2018-01-11T15:48:43.072Z,19.50
2018-01-11T15:51:10.696Z,18.30
2018-01-11T15:53:38.205Z,22.00
2018-01-11T15:56:05.725Z,22.93
2018-01-11T15:58:33.248Z,18.40
2018-01-11T16:01:00.831Z,31.87
2018-01-11T16:03:28.425Z,34.77
2018-01-11T16:05:55.991Z,47.90
2018-01-11T16:08:23.602Z,46.73
2018-01-11T16:10:51.848Z,96.60
2018-01-11T16:13:20.552Z,96.60
2018-01-11T16:15:48.458Z,43.43
2018-01-11T16:18:16.518Z,32.77
2018-01-11T16:20:44.617Z,23.40
2018-01-11T16:23:12.181Z,22.50
2018-01-11T16:25:40.442Z,24.90
2018-01-11T16:28:10.310Z,24.57
2018-01-11T16:30:37.886Z,59.80
2018-01-11T16:33:07.182Z,52.77
2018-01-11T16:35:34.926Z,36.43
2018-01-11T16:38:02.751Z,39.53
2018-01-11T16:44:00.690Z,24.77
2018-01-11T16:46:45.698Z,31.47
2018-01-11T16:49:18.280Z,25.93
2018-01-11T17:16:46.734Z,23.20
2018-01-11T17:19:14.262Z,23.97
2018-01-11T17:21:41.796Z,23.37
2018-01-11T17:24:11.265Z,23.63
2018-01-11T17:26:46.354Z,24.07
2018-01-11T17:29:14.058Z,24.47
2018-01-11T17:31:43.800Z,35.10
2018-01-11T17:34:11.387Z,22.67
2018-01-11T17:36:54.541Z,20.40
2018-01-11T17:39:22.084Z,20.67
2018-01-11T17:41:49.634Z,17.07
2018-01-11T17:44:17.202Z,17.83
2018-01-11T17:46:44.762Z,18.27
2018-01-11T17:49:12.928Z,18.63
2018-01-11T17:51:41.344Z,16.63
2018-01-11T17:54:09.061Z,19.00
2018-01-11T17:56:37.487Z,21.57
2018-01-11T17:59:10.316Z,17.77
2018-01-11T18:10:18.387Z,17.80
2018-01-11T18:12:47.163Z,19.07
2018-01-11T18:15:25.604Z,21.47
2018-01-11T18:17:54.100Z,20.53
2018-01-11T18:20:22.405Z,24.30
2018-01-11T18:22:51.062Z,21.37
2018-01-11T18:25:18.738Z,25.47
2018-01-11T18:27:46.355Z,21.53
2018-01-11T18:30:13.970Z,28.77
2018-01-11T18:32:41.937Z,25.30
2018-01-11T18:35:09.611Z,19.47
2018-01-11T18:37:37.180Z,20.10
2018-01-11T18:40:04.887Z,22.53
2018-01-11T18:42:32.419Z,21.50
2018-01-11T18:45:00.073Z,24.30
2018-01-11T18:47:27.719Z,22.07
2018-01-11T18:49:55.659Z,22.50
2018-01-11T18:52:23.212Z,27.63
2018-01-11T18:57:33.356Z,27.03
2018-01-11T19:00:09.185Z,26.30
2018-01-11T19:03:00.561Z,21.83
2018-01-11T19:05:31.695Z,23.40
2018-01-11T19:08:05.371Z,24.93
2018-01-11T19:10:42.680Z,24.13
2018-01-11T19:13:14.853Z,28.73
2018-01-11T19:15:47.519Z,27.00
2018-01-11T19:18:26.586Z,27.60
2018-01-11T19:20:56.743Z,26.80
2018-01-11T19:23:36.181Z,24.50
2018-01-11T19:26:04.934Z,29.87
2018-01-11T19:28:40.179Z,28.17
2018-01-11T19:31:09.618Z,30.63
2018-01-11T19:36:56.076Z,28.27
2018-01-11T19:39:42.613Z,29.90
2018-01-11T19:42:15.041Z,28.03
2018-01-11T19:44:55.497Z,33.00
2018-01-11T19:47:27.401Z,26.10
2018-01-11T19:49:58.815Z,27.37
2018-01-11T19:52:29.056Z,25.40
2018-01-11T19:54:57.893Z,30.23
2018-01-11T19:57:28.568Z,25.87
2018-01-11T19:59:59.093Z,20.20
2018-01-11T20:02:28.579Z,21.57
2018-01-11T20:05:01.076Z,20.03
2018-01-11T20:07:30.357Z,20.77
2018-01-11T20:13:06.673Z,20.30
2018-01-11T20:24:06.418Z,19.57
2018-01-11T20:30:06.985Z,26.07
2018-01-11T21:46:26.220Z,21.37
2018-01-11T21:48:59.655Z,24.83
2018-01-11T21:51:36.732Z,29.07
2018-01-11T21:57:10.280Z,26.47
2018-01-11T22:00:03.359Z,25.73
2018-01-11T22:02:42.711Z,29.40
2018-01-11T22:08:11.572Z,26.80
2018-01-11T22:10:41.482Z,25.93
2018-01-11T22:13:10.878Z,25.80
2018-01-11T22:15:39.295Z,25.43
2018-01-11T22:18:07.016Z,20.50
2018-01-11T22:20:34.627Z,22.13
2018-01-11T22:23:05.494Z,23.50
2018-01-11T22:25:36.478Z,20.37
2018-01-11T22:28:05.202Z,20.57
2018-01-11T22:30:34.725Z,25.40
2018-01-11T22:33:03.634Z,16.30
2018-01-11T22:35:32.245Z,16.83
2018-01-11T22:38:00.058Z,16.80
2018-01-11T22:40:31.049Z,16.13
2018-01-11T22:42:58.671Z,18.67
2018-01-11T22:45:27.392Z,21.70
2018-01-11T22:47:54.996Z,16.93
2018-01-11T22:50:23.415Z,18.70
2018-01-11T22:55:28.512Z,14.63
2018-01-11T22:57:57.052Z,15.80
2018-01-11T23:00:27.187Z,13.00
2018-01-11T23:02:57.373Z,15.07
2018-01-11T23:05:26.018Z,13.10
2018-01-11T23:07:55.824Z,17.00
2018-01-11T23:10:25.636Z,16.00
2018-01-11T23:12:55.742Z,15.80
2018-01-11T23:15:24.567Z,14.33
2018-01-11T23:17:53.358Z,14.53
2018-01-11T23:20:22.524Z,19.23
2018-01-11T23:22:52.446Z,14.90
2018-01-11T23:25:20.098Z,16.33
2018-01-11T23:27:48.695Z,17.40
2018-01-11T23:30:19.089Z,17.03
2018-01-11T23:32:49.600Z,15.17
2018-01-11T23:35:21.228Z,17.00
2018-01-11T23:37:50.094Z,18.20
2018-01-11T23:40:27.335Z,15.43
2018-01-11T23:42:55.874Z,18.87
2018-01-11T23:45:25.252Z,16.50
2018-01-11T23:47:53.502Z,17.67
2018-01-11T23:50:21.191Z,16.13
2018-01-11T23:52:53.120Z,16.40
2018-01-11T23:55:20.719Z,17.33
2018-01-11T23:57:49.141Z,20.30
